Time;durP1;ratioP1;P1;durP2;ratioP2;P2;SDS_P1;SDS_P2;PMS_P1;PMS_P2;Temp;Humidity;BMP_temperature;BMP_pressure;BME280_temperature;BME280_humidity;BME280_pressure;Samples;Min_cycle;Max_cycle;Signal;HPM_P1;HPM_P2
2023/03/31 00:00:10;;;;;;;21.83;4.97;;;11.30;99.90;;;;;;4992838;28;20527;-81
2023/03/31 00:02:42;;;;;;;20.50;5.23;;;11.30;99.90;;;;;;5008056;28;20123;-81
2023/03/31 00:05:09;;;;;;;18.55;4.93;;;11.30;99.90;;;;;;4990294;28;20034;-82
2023/03/31 00:07:36;;;;;;;22.90;5.47;;;11.30;99.90;;;;;;4992815;28;20041;-81
2023/03/31 00:10:06;;;;;;;23.23;5.40;;;11.20;99.90;;;;;;4990234;28;20038;-81
2023/03/31 00:12:32;;;;;;;17.47;4.30;;;11.30;99.90;;;;;;4992537;28;20042;-82
2023/03/31 00:14:58;;;;;;;18.77;4.63;;;11.30;99.90;;;;;;4994127;28;20041;-80
2023/03/31 00:17:24;;;;;;;17.40;4.63;;;11.30;99.90;;;;;;5005373;28;20064;-82
2023/03/31 00:19:49;;;;;;;19.70;4.63;;;11.30;99.90;;;;;;4986749;28;20049;-81
2023/03/31 00:22:21;;;;;;;22.05;5.05;;;11.20;99.90;;;;;;4989989;28;20745;-81
2023/03/31 00:24:47;;;;;;;21.13;4.87;;;11.20;99.90;;;;;;4975333;28;20066;-81
2023/03/31 00:27:13;;;;;;;18.92;4.65;;;11.20;99.90;;;;;;4991618;28;20045;-81
2023/03/31 00:29:40;;;;;;;24.57;5.07;;;11.10;99.90;;;;;;4990608;28;20041;-82
2023/03/31 00:32:09;;;;;;;19.80;4.35;;;11.10;99.90;;;;;;4975229;28;20037;-82
2023/03/31 00:34:35;;;;;;;20.77;4.93;;;11.00;99.90;;;;;;4979318;28;20049;-80
2023/03/31 00:37:01;;;;;;;23.98;5.05;;;10.90;99.90;;;;;;5002739;28;20045;-81
2023/03/31 00:39:30;;;;;;;18.20;4.90;;;10.90;99.90;;;;;;5005103;28;20087;-82
2023/03/31 00:41:57;;;;;;;20.40;4.73;;;10.80;99.90;;;;;;5010352;28;20125;-82
2023/03/31 00:44:28;;;;;;;15.80;4.60;;;10.80;99.90;;;;;;4982129;28;20053;-81
2023/03/31 00:47:03;;;;;;;20.10;4.40;;;10.70;99.90;;;;;;4970354;28;20121;-81
2023/03/31 00:49:36;;;;;;;24.57;4.63;;;10.60;99.90;;;;;;4987707;28;20243;-82
2023/03/31 00:52:17;;;;;;;18.83;5.17;;;10.60;99.90;;;;;;4986525;28;20118;-81
2023/03/31 00:54:46;;;;;;;21.80;5.47;;;10.50;99.90;;;;;;5003873;28;20108;-82
2023/03/31 00:57:13;;;;;;;19.70;4.57;;;10.40;99.90;;;;;;4973050;28;20042;-82
2023/03/31 01:00:17;;;;;;;16.60;4.73;;;10.40;99.90;;;;;;4971606;28;20541;-81
2023/03/31 01:02:52;;;;;;;17.33;4.40;;;10.40;99.90;;;;;;4986718;28;20135;-82
2023/03/31 01:05:32;;;;;;;23.43;5.40;;;10.30;99.90;;;;;;4971056;28;20125;-81
2023/03/31 01:08:01;;;;;;;19.20;4.30;;;10.30;99.90;;;;;;5003746;28;20033;-82
2023/03/31 01:10:28;;;;;;;18.57;4.37;;;10.20;99.90;;;;;;4971320;28;20591;-82
2023/03/31 01:12:56;;;;;;;18.63;4.80;;;10.10;99.90;;;;;;5002777;28;20508;-81
2023/03/31 01:15:22;;;;;;;16.93;3.93;;;10.10;99.90;;;;;;4983526;28;20397;-81
2023/03/31 01:17:49;;;;;;;20.23;4.40;;;10.00;99.90;;;;;;4990968;28;20482;-81
2023/03/31 01:20:33;;;;;;;20.53;4.83;;;9.90;99.90;;;;;;4986129;28;20473;-81
2023/03/31 01:23:08;;;;;;;14.97;4.00;;;9.90;99.90;;;;;;4985228;28;20472;-81
2023/03/31 01:26:06;;;;;;;15.77;4.27;;;9.80;99.90;;;;;;4985717;28;20104;-82
2023/03/31 01:28:41;;;;;;;18.23;5.10;;;9.80;99.90;;;;;;4998547;28;20125;-82
2023/03/31 01:31:19;;;;;;;23.30;4.53;;;9.70;99.90;;;;;;5024011;28;20053;-82
2023/03/31 01:34:07;;;;;;;20.40;3.80;;;9.70;99.90;;;;;;4990030;28;20041;-81
2023/03/31 01:37:00;;;;;;;19.63;4.30;;;9.70;99.90;;;;;;5004417;28;20440;-81
2023/03/31 01:39:41;;;;;;;23.87;4.93;;;9.60;99.90;;;;;;5001427;28;20045;-81
2023/03/31 01:42:29;;;;;;;23.57;4.50;;;9.60;99.90;;;;;;5006464;28;20050;-80
2023/03/31 01:45:11;;;;;;;18.97;4.10;;;9.60;99.90;;;;;;4986472;28;20056;-81
2023/03/31 01:47:56;;;;;;;18.97;4.30;;;9.50;99.90;;;;;;4994201;28;20397;-81
2023/03/31 01:50:32;;;;;;;19.17;4.37;;;9.50;99.90;;;;;;5005611;28;20073;-81
2023/03/31 01:53:24;;;;;;;19.83;4.53;;;9.50;99.90;;;;;;5007895;28;20085;-81
2023/03/31 01:56:22;;;;;;;23.38;5.10;;;9.50;99.90;;;;;;4985597;28;20137;-81
2023/03/31 01:59:00;;;;;;;18.00;3.93;;;9.50;99.90;;;;;;4983899;28;20502;-81
2023/03/31 02:01:37;;;;;;;14.50;3.80;;;9.50;99.90;;;;;;4988948;28;20042;-81
2023/03/31 02:04:27;;;;;;;21.50;4.77;;;9.50;99.90;;;;;;5003887;28;20390;-81
2023/03/31 02:07:11;;;;;;;15.57;4.20;;;9.50;99.90;;;;;;4989121;28;20113;-81
2023/03/31 02:09:44;;;;;;;16.40;4.07;;;9.50;99.90;;;;;;4988129;28;20143;-81
2023/03/31 02:12:11;;;;;;;17.73;4.30;;;9.60;99.90;;;;;;5002018;28;20444;-81
2023/03/31 02:14:42;;;;;;;21.90;4.70;;;9.60;99.90;;;;;;5007923;28;20056;-82
2023/03/31 02:17:16;;;;;;;21.20;4.33;;;9.60;99.90;;;;;;4990264;28;20421;-81
2023/03/31 02:19:46;;;;;;;16.27;4.00;;;9.60;99.90;;;;;;5007705;28;20045;-81
2023/03/31 02:22:13;;;;;;;17.67;4.37;;;9.60;99.90;;;;;;4993038;28;20074;-81
2023/03/31 02:24:41;;;;;;;22.23;4.60;;;9.60;99.90;;;;;;4987861;28;20038;-82
2023/03/31 02:27:19;;;;;;;16.83;5.10;;;9.60;99.90;;;;;;4968442;28;20949;-81
2023/03/31 02:29:45;;;;;;;16.53;4.57;;;9.60;99.90;;;;;;4989078;28;20147;-81
2023/03/31 02:32:31;;;;;;;18.37;4.67;;;9.60;99.90;;;;;;4988967;28;20042;-81
2023/03/31 02:34:58;;;;;;;18.80;4.87;;;9.60;99.90;;;;;;4989369;28;20397;-81
2023/03/31 02:37:25;;;;;;;14.50;4.67;;;9.60;99.90;;;;;;4973438;28;20041;-82
2023/03/31 02:39:54;;;;;;;15.70;4.70;;;9.60;99.90;;;;;;5004592;28;20056;-81
2023/03/31 02:42:21;;;;;;;14.50;4.83;;;9.60;99.90;;;;;;4986648;28;20038;-81
2023/03/31 02:44:46;;;;;;;14.07;5.00;;;9.60;99.90;;;;;;4988093;28;20062;-81
2023/03/31 02:47:15;;;;;;;15.23;5.03;;;9.50;99.90;;;;;;4989894;28;20489;-81
2023/03/31 02:49:49;;;;;;;15.30;4.83;;;9.60;99.90;;;;;;4988378;28;20418;-81
2023/03/31 02:52:43;;;;;;;14.40;5.00;;;9.60;99.90;;;;;;4989555;28;20112;-81
2023/03/31 02:55:31;;;;;;;16.23;5.13;;;9.60;99.90;;;;;;4985215;28;20049;-81
2023/03/31 02:57:59;;;;;;;13.77;4.50;;;9.60;99.90;;;;;;5003293;28;20053;-81
2023/03/31 03:00:32;;;;;;;14.13;4.93;;;9.50;99.90;;;;;;4988219;28;20038;-81
2023/03/31 03:03:27;;;;;;;14.40;5.10;;;9.50;99.90;;;;;;5002050;28;20874;-81
2023/03/31 03:06:05;;;;;;;15.23;4.80;;;9.60;99.90;;;;;;4982817;28;20043;-81
2023/03/31 03:09:00;;;;;;;11.27;4.43;;;9.60;99.90;;;;;;5005160;28;20379;-81
2023/03/31 03:11:49;;;;;;;17.07;5.67;;;9.60;99.90;;;;;;4983399;28;20038;-82
2023/03/31 03:14:21;;;;;;;12.17;4.87;;;9.60;99.90;;;;;;4986262;28;20045;-80
2023/03/31 03:16:56;;;;;;;15.43;5.57;;;9.60;99.90;;;;;;4988908;28;20096;-81
2023/03/31 03:19:23;;;;;;;17.90;5.17;;;9.60;99.90;;;;;;4986820;28;20100;-81
2023/03/31 03:21:49;;;;;;;15.87;5.00;;;9.60;99.90;;;;;;4987751;28;20056;-81
2023/03/31 03:24:16;;;;;;;17.20;4.80;;;9.60;99.90;;;;;;4988806;28;20151;-82
2023/03/31 03:26:45;;;;;;;14.17;4.87;;;9.60;99.90;;;;;;5002018;28;21053;-81
2023/03/31 03:29:14;;;;;;;14.33;5.57;;;9.60;99.90;;;;;;4972916;28;20057;-81
2023/03/31 03:31:41;;;;;;;16.30;5.37;;;9.60;99.90;;;;;;4972359;28;20077;-81
2023/03/31 03:34:08;;;;;;;15.83;5.10;;;9.70;99.90;;;;;;5004522;28;20133;-81
2023/03/31 03:36:36;;;;;;;15.97;5.43;;;9.70;99.90;;;;;;4999305;28;20077;-81
2023/03/31 03:39:06;;;;;;;12.13;4.77;;;9.70;99.90;;;;;;4998905;28;20038;-81
2023/03/31 03:41:32;;;;;;;14.23;4.97;;;9.70;99.90;;;;;;4988778;28;20125;-81
2023/03/31 03:43:59;;;;;;;11.57;5.10;;;9.80;99.90;;;;;;4988103;28;20119;-81
2023/03/31 03:46:25;;;;;;;13.77;5.03;;;9.80;99.90;;;;;;4988737;28;20082;-81
2023/03/31 03:48:52;;;;;;;13.30;4.43;;;9.80;99.90;;;;;;4987883;28;20516;-81
2023/03/31 03:51:17;;;;;;;14.13;4.93;;;9.80;99.90;;;;;;4988292;28;20069;-80
2023/03/31 03:53:43;;;;;;;12.00;4.40;;;9.80;99.90;;;;;;4989380;28;20038;-80
2023/03/31 03:56:09;;;;;;;15.33;5.60;;;9.90;99.90;;;;;;4986130;28;20152;-81
2023/03/31 03:58:35;;;;;;;12.47;4.83;;;9.90;99.90;;;;;;5001015;28;20046;-81
2023/03/31 04:01:01;;;;;;;12.80;4.83;;;9.90;99.90;;;;;;4970556;28;20084;-81
2023/03/31 04:03:27;;;;;;;12.27;5.40;;;9.90;99.90;;;;;;4981883;28;20077;-80
2023/03/31 04:05:53;;;;;;;12.30;5.00;;;9.90;99.90;;;;;;4972108;28;20048;-81
2023/03/31 04:08:18;;;;;;;11.47;5.10;;;9.90;99.90;;;;;;4989795;28;20072;-81
2023/03/31 04:10:49;;;;;;;8.27;4.40;;;9.90;99.90;;;;;;4970018;28;20047;-80
2023/03/31 04:13:19;;;;;;;9.37;4.50;;;10.00;99.90;;;;;;5002217;28;20100;-82
2023/03/31 04:15:45;;;;;;;11.23;4.40;;;9.90;99.90;;;;;;4988118;28;20048;-80
2023/03/31 04:18:21;;;;;;;10.87;4.80;;;9.90;99.90;;;;;;5003267;28;20569;-80
2023/03/31 04:20:53;;;;;;;10.27;4.43;;;9.90;99.90;;;;;;4985405;28;20050;-80
2023/03/31 04:23:22;;;;;;;8.73;4.75;;;9.90;99.90;;;;;;5005287;28;20061;-79
2023/03/31 04:25:49;;;;;;;15.10;5.17;;;9.90;99.90;;;;;;5001615;28;20046;-79
2023/03/31 04:28:15;;;;;;;12.60;5.40;;;9.90;99.90;;;;;;4984653;28;20061;-79
2023/03/31 04:30:40;;;;;;;9.57;4.77;;;9.90;99.90;;;;;;4985773;28;20034;-79
2023/03/31 04:33:06;;;;;;;13.97;4.63;;;9.90;99.90;;;;;;4986823;28;20490;-79
2023/03/31 04:35:48;;;;;;;12.17;5.17;;;9.90;99.90;;;;;;4963882;28;20396;-79
2023/03/31 04:38:18;;;;;;;10.30;5.63;;;9.90;99.90;;;;;;4975683;28;20050;-79
2023/03/31 04:40:49;;;;;;;10.70;4.70;;;9.80;99.90;;;;;;4999112;28;20684;-78
2023/03/31 04:43:16;;;;;;;12.20;5.30;;;9.90;99.90;;;;;;5000797;28;20565;-78
2023/03/31 04:45:42;;;;;;;14.17;5.53;;;9.80;99.90;;;;;;5001751;28;20064;-78
2023/03/31 04:48:08;;;;;;;10.50;5.10;;;9.80;99.90;;;;;;4999922;28;20081;-78
2023/03/31 04:50:34;;;;;;;12.13;5.73;;;9.80;99.90;;;;;;4999345;28;20540;-78
2023/03/31 04:53:01;;;;;;;11.73;5.33;;;9.80;99.90;;;;;;5000997;28;20045;-79
2023/03/31 04:55:27;;;;;;;10.97;5.33;;;9.80;99.90;;;;;;4999148;28;20052;-79
2023/03/31 04:57:52;;;;;;;11.97;5.20;;;9.80;99.90;;;;;;4983390;28;20042;-79
2023/03/31 05:00:19;;;;;;;18.00;5.70;;;9.80;99.90;;;;;;4984200;28;20069;-79
2023/03/31 05:02:45;;;;;;;13.73;5.10;;;9.80;99.90;;;;;;4982172;28;20192;-79
2023/03/31 05:05:11;;;;;;;13.80;5.73;;;9.80;99.90;;;;;;4995496;28;20041;-79
2023/03/31 05:07:37;;;;;;;13.30;5.37;;;9.80;99.90;;;;;;4968889;28;20034;-79
2023/03/31 05:10:05;;;;;;;14.53;5.93;;;9.80;99.90;;;;;;4997175;28;20041;-79
2023/03/31 05:12:37;;;;;;;14.80;5.47;;;9.90;99.90;;;;;;4984162;28;20386;-79
2023/03/31 05:15:04;;;;;;;10.97;5.27;;;9.90;99.90;;;;;;4998716;28;20046;-78
2023/03/31 05:17:35;;;;;;;10.83;4.90;;;9.80;99.90;;;;;;4996687;28;20033;-79
2023/03/31 05:20:04;;;;;;;11.47;4.73;;;9.80;99.90;;;;;;4992623;28;20524;-78
2023/03/31 05:22:33;;;;;;;12.17;5.40;;;9.80;99.90;;;;;;4991522;28;20060;-79
2023/03/31 05:24:59;;;;;;;10.83;5.07;;;9.90;99.90;;;;;;4975541;28;20045;-79
2023/03/31 05:27:25;;;;;;;13.43;5.87;;;9.90;99.90;;;;;;4960092;28;20572;-78
2023/03/31 05:29:51;;;;;;;11.23;5.27;;;9.80;99.90;;;;;;4976794;28;20085;-80
2023/03/31 05:32:16;;;;;;;10.80;5.27;;;9.80;99.90;;;;;;4984428;28;20401;-80
2023/03/31 05:34:42;;;;;;;10.63;5.37;;;9.90;99.90;;;;;;4981107;28;20048;-79
2023/03/31 05:37:08;;;;;;;9.93;5.03;;;9.90;99.90;;;;;;4965843;28;20037;-79
2023/03/31 05:39:34;;;;;;;9.40;5.87;;;9.90;99.90;;;;;;4999379;28;20103;-79
2023/03/31 05:42:01;;;;;;;12.00;6.63;;;9.80;99.90;;;;;;4995895;28;20072;-79
2023/03/31 05:44:29;;;;;;;14.27;5.83;;;9.90;99.90;;;;;;4981201;28;20120;-79
2023/03/31 05:46:55;;;;;;;9.87;6.33;;;9.90;99.90;;;;;;4980820;28;20124;-79
2023/03/31 05:49:20;;;;;;;10.97;6.13;;;9.80;99.90;;;;;;4998891;28;20133;-79
2023/03/31 05:51:46;;;;;;;14.03;6.27;;;9.90;99.90;;;;;;5000767;28;20445;-79
2023/03/31 05:54:12;;;;;;;10.50;5.87;;;9.90;99.90;;;;;;5002928;28;20064;-79
2023/03/31 05:56:38;;;;;;;11.60;6.03;;;9.90;99.90;;;;;;4966200;28;20145;-78
2023/03/31 05:59:04;;;;;;;10.27;5.70;;;9.90;99.90;;;;;;4983132;28;20120;-79
2023/03/31 06:01:30;;;;;;;12.27;6.27;;;10.00;99.90;;;;;;4982649;28;20056;-80
2023/03/31 06:03:56;;;;;;;10.53;5.23;;;9.90;99.90;;;;;;4984483;28;20046;-80
2023/03/31 06:06:22;;;;;;;16.30;6.90;;;10.00;99.90;;;;;;5001340;28;20076;-80
2023/03/31 06:08:48;;;;;;;11.67;5.50;;;10.00;99.90;;;;;;4984027;28;20386;-80
2023/03/31 06:11:18;;;;;;;14.67;5.87;;;9.90;99.90;;;;;;4969626;28;20045;-82
2023/03/31 06:13:44;;;;;;;10.90;5.10;;;10.00;99.90;;;;;;4987570;28;20050;-82
2023/03/31 06:16:11;;;;;;;12.97;5.27;;;10.00;99.90;;;;;;5009220;28;20042;-82
2023/03/31 06:18:37;;;;;;;10.57;5.17;;;10.00;99.90;;;;;;5001784;28;20387;-82
2023/03/31 06:21:03;;;;;;;12.23;4.97;;;10.00;99.90;;;;;;5003071;28;20038;-82
2023/03/31 06:23:29;;;;;;;9.37;5.10;;;10.00;99.90;;;;;;4978654;28;20048;-81
2023/03/31 06:26:02;;;;;;;6.40;4.60;;;10.00;99.90;;;;;;5002067;28;20041;-81
2023/03/31 06:28:28;;;;;;;9.97;4.93;;;10.00;99.90;;;;;;5012224;28;20045;-81
2023/03/31 06:31:05;;;;;;;11.77;4.50;;;10.00;99.90;;;;;;5006877;28;20406;-82
2023/03/31 06:33:32;;;;;;;12.50;4.60;;;10.00;99.90;;;;;;5006400;28;20617;-81
2023/03/31 06:36:00;;;;;;;10.87;5.27;;;10.00;99.90;;;;;;4971572;28;20046;-81
2023/03/31 06:38:27;;;;;;;10.90;5.83;;;10.00;99.90;;;;;;4991225;28;20096;-81
2023/03/31 06:40:53;;;;;;;13.13;7.00;;;10.00;99.90;;;;;;4954096;28;20117;-81
2023/03/31 06:43:19;;;;;;;14.03;7.57;;;10.00;99.90;;;;;;4988315;28;20136;-81
2023/03/31 06:45:46;;;;;;;13.10;6.30;;;10.10;99.90;;;;;;5005072;28;20045;-81
2023/03/31 06:48:11;;;;;;;14.63;7.43;;;10.10;99.90;;;;;;4967700;28;20081;-81
2023/03/31 06:50:40;;;;;;;15.50;6.77;;;10.00;99.90;;;;;;5009116;28;20062;-81
2023/03/31 06:53:05;;;;;;;13.07;7.33;;;10.10;99.90;;;;;;4985768;28;20068;-81
2023/03/31 06:55:32;;;;;;;12.90;7.63;;;10.10;99.90;;;;;;4985998;28;20042;-81
2023/03/31 06:57:58;;;;;;;16.03;7.77;;;10.10;99.90;;;;;;4992611;28;20042;-81
2023/03/31 07:00:25;;;;;;;14.00;5.43;;;10.10;99.90;;;;;;4989330;28;20041;-82
2023/03/31 07:02:52;;;;;;;12.83;5.80;;;10.10;99.90;;;;;;4990725;28;20041;-81
2023/03/31 07:05:19;;;;;;;11.70;5.57;;;10.10;99.90;;;;;;5000476;28;20034;-82
2023/03/31 07:07:44;;;;;;;11.60;5.77;;;10.10;99.90;;;;;;4973367;28;20117;-82
2023/03/31 07:10:10;;;;;;;10.47;4.67;;;10.20;99.90;;;;;;4987392;28;20593;-82
2023/03/31 07:12:36;;;;;;;13.17;4.90;;;10.10;99.90;;;;;;4973223;28;20042;-82
2023/03/31 07:15:02;;;;;;;10.30;6.07;;;10.10;99.90;;;;;;4985248;28;20505;-82
2023/03/31 07:17:28;;;;;;;9.53;4.77;;;10.10;99.90;;;;;;4977165;28;20053;-82
2023/03/31 07:19:54;;;;;;;12.57;4.70;;;10.10;99.90;;;;;;4987825;28;20046;-82
2023/03/31 07:22:19;;;;;;;11.97;5.77;;;10.10;99.90;;;;;;4980045;28;20501;-83
2023/03/31 07:24:45;;;;;;;11.73;5.80;;;10.10;99.90;;;;;;4980235;28;20120;-83
2023/03/31 07:27:11;;;;;;;13.70;7.40;;;10.10;99.90;;;;;;4974788;28;20455;-82
2023/03/31 07:29:36;;;;;;;11.37;5.20;;;10.10;99.90;;;;;;4980196;28;20034;-82
2023/03/31 07:32:02;;;;;;;9.70;5.30;;;10.10;99.90;;;;;;4960939;28;20109;-82
2023/03/31 07:34:28;;;;;;;11.10;5.73;;;10.10;99.90;;;;;;4975081;28;20038;-83
2023/03/31 07:36:55;;;;;;;10.07;4.77;;;10.10;99.90;;;;;;4960133;28;20046;-83
2023/03/31 07:39:21;;;;;;;12.00;5.70;;;10.10;99.90;;;;;;4983690;28;20064;-82
2023/03/31 07:41:47;;;;;;;12.40;5.37;;;10.10;99.90;;;;;;4996760;28;20104;-83
2023/03/31 07:44:12;;;;;;;15.03;6.33;;;10.20;99.90;;;;;;5008560;28;20046;-82
2023/03/31 07:46:39;;;;;;;19.20;7.90;;;10.20;99.90;;;;;;4993132;28;20041;-82
2023/03/31 07:49:06;;;;;;;15.83;6.40;;;10.20;99.90;;;;;;4978296;28;20049;-83
2023/03/31 07:51:32;;;;;;;11.93;5.83;;;10.20;99.90;;;;;;4971929;28;20092;-82
2023/03/31 07:53:57;;;;;;;17.90;6.37;;;10.20;99.90;;;;;;4969341;28;20498;-84
2023/03/31 07:56:24;;;;;;;19.70;7.50;;;10.20;99.90;;;;;;4995633;28;20048;-82
2023/03/31 07:58:51;;;;;;;19.67;7.83;;;10.30;99.90;;;;;;5011691;28;20042;-82
2023/03/31 08:01:18;;;;;;;13.83;6.33;;;10.30;99.90;;;;;;5009230;28;20406;-82
2023/03/31 08:03:46;;;;;;;12.03;5.97;;;10.30;99.90;;;;;;4969257;28;20034;-82
2023/03/31 08:06:17;;;;;;;12.30;5.93;;;10.30;99.90;;;;;;4982094;28;20103;-83
2023/03/31 08:08:43;;;;;;;14.10;6.75;;;10.30;99.90;;;;;;4994813;28;20038;-82
2023/03/31 08:11:09;;;;;;;12.77;6.47;;;10.30;99.90;;;;;;4984930;28;20038;-82
2023/03/31 08:13:35;;;;;;;14.20;6.77;;;10.30;99.90;;;;;;4960123;28;20038;-82
2023/03/31 08:16:00;;;;;;;10.80;5.07;;;10.30;99.90;;;;;;4976651;28;20046;-82
2023/03/31 08:18:26;;;;;;;14.27;5.60;;;10.30;99.90;;;;;;4989254;28;20104;-83
2023/03/31 08:20:52;;;;;;;14.10;5.30;;;10.40;99.90;;;;;;4971270;28;20067;-82
2023/03/31 08:23:17;;;;;;;9.83;5.07;;;10.40;99.90;;;;;;4978725;28;20664;-81
2023/03/31 08:25:43;;;;;;;11.60;5.10;;;10.40;99.90;;;;;;4979568;28;20146;-81
2023/03/31 08:28:12;;;;;;;12.53;4.90;;;10.40;99.90;;;;;;4994166;28;20636;-81
2023/03/31 08:30:39;;;;;;;11.37;4.87;;;10.50;99.90;;;;;;4978010;28;20536;-82
2023/03/31 08:33:06;;;;;;;10.63;4.20;;;10.50;99.90;;;;;;4964760;28;20038;-81
2023/03/31 08:35:33;;;;;;;11.50;4.37;;;10.50;99.90;;;;;;4975288;28;20050;-82
2023/03/31 08:38:00;;;;;;;11.37;4.63;;;10.50;99.90;;;;;;4990334;28;20045;-81
2023/03/31 08:40:28;;;;;;;11.23;4.83;;;10.50;99.90;;;;;;4958697;28;20489;-81
2023/03/31 08:43:05;;;;;;;12.67;4.57;;;10.50;99.90;;;;;;4987945;28;20050;-81
2023/03/31 08:45:38;;;;;;;11.67;4.27;;;10.60;99.90;;;;;;4998861;28;20100;-82
2023/03/31 08:48:32;;;;;;;9.57;4.47;;;10.60;99.90;;;;;;4990807;28;20066;-82
2023/03/31 08:51:19;;;;;;;14.90;5.37;;;10.60;99.90;;;;;;4988224;28;20490;-81
2023/03/31 08:53:57;;;;;;;11.17;4.97;;;10.60;99.90;;;;;;4987087;28;20480;-81
2023/03/31 08:56:25;;;;;;;11.47;4.53;;;10.60;99.90;;;;;;4994232;28;20132;-81
2023/03/31 08:58:51;;;;;;;9.23;4.37;;;10.70;99.90;;;;;;4993843;28;20056;-81
2023/03/31 09:01:36;;;;;;;8.73;4.40;;;10.80;99.90;;;;;;5009979;28;20128;-81
2023/03/31 09:04:07;;;;;;;9.70;4.50;;;10.80;99.90;;;;;;4999249;28;20049;-83
2023/03/31 09:06:48;;;;;;;10.70;4.40;;;10.90;99.90;;;;;;4975181;28;20050;-81
2023/03/31 09:09:26;;;;;;;9.03;4.73;;;10.90;99.90;;;;;;5003542;28;20038;-80
2023/03/31 09:11:55;;;;;;;10.67;4.87;;;10.90;99.90;;;;;;5000150;28;20053;-80
2023/03/31 09:14:27;;;;;;;9.07;4.10;;;11.00;99.90;;;;;;4992355;28;20081;-81
2023/03/31 09:17:11;;;;;;;8.40;3.92;;;11.00;99.90;;;;;;4991127;28;20049;-80
2023/03/31 09:19:42;;;;;;;10.20;4.00;;;11.00;99.90;;;;;;4979440;28;20125;-82
2023/03/31 09:22:21;;;;;;;7.67;3.67;;;11.00;99.90;;;;;;4978900;28;20541;-83
2023/03/31 09:25:00;;;;;;;9.25;3.72;;;11.00;99.90;;;;;;4993489;28;20493;-81
2023/03/31 09:27:30;;;;;;;6.03;3.70;;;11.00;99.90;;;;;;5004866;28;20041;-80
2023/03/31 09:30:24;;;;;;;10.73;4.07;;;11.00;99.90;;;;;;5004275;28;20049;-81
2023/03/31 09:32:57;;;;;;;10.27;3.77;;;11.00;99.90;;;;;;4988608;28;20049;-79
2023/03/31 09:35:25;;;;;;;9.07;3.40;;;11.00;99.90;;;;;;4998767;28;20042;-80
2023/03/31 09:37:52;;;;;;;11.47;4.03;;;11.10;99.90;;;;;;4975917;28;20100;-79
2023/03/31 09:40:21;;;;;;;7.90;3.30;;;11.10;99.90;;;;;;4971191;28;20042;-80
2023/03/31 09:42:53;;;;;;;9.67;3.37;;;11.00;99.90;;;;;;5001188;28;20038;-79
2023/03/31 09:45:19;;;;;;;9.73;3.57;;;11.00;99.90;;;;;;5005943;28;20056;-80
2023/03/31 09:47:50;;;;;;;10.30;3.40;;;11.00;99.90;;;;;;4997242;28;20037;-79
2023/03/31 09:50:17;;;;;;;6.83;2.83;;;11.10;99.90;;;;;;4988343;28;20120;-79
2023/03/31 09:52:48;;;;;;;8.52;3.28;;;11.00;99.90;;;;;;4998860;28;20477;-80
2023/03/31 09:55:46;;;;;;;7.73;3.03;;;11.00;99.90;;;;;;4992725;28;20070;-79
2023/03/31 09:58:14;;;;;;;5.53;2.70;;;11.00;99.90;;;;;;5013973;28;20615;-79
2023/03/31 10:00:42;;;;;;;5.68;2.80;;;11.10;99.90;;;;;;5006194;28;20038;-81
2023/03/31 10:03:14;;;;;;;5.73;2.70;;;11.10;99.90;;;;;;4999725;28;20045;-79
2023/03/31 10:05:50;;;;;;;6.70;3.40;;;11.20;99.90;;;;;;5017538;28;20057;-82
2023/03/31 10:08:16;;;;;;;7.50;3.23;;;11.20;99.90;;;;;;4982013;28;20045;-82
2023/03/31 10:11:10;;;;;;;7.80;3.13;;;11.20;99.90;;;;;;4996790;28;20053;-79
2023/03/31 10:14:01;;;;;;;3.80;2.50;;;11.20;99.90;;;;;;5012632;28;20053;-80
2023/03/31 10:16:42;;;;;;;5.77;2.47;;;11.20;99.90;;;;;;4998572;28;20049;-82
2023/03/31 10:19:26;;;;;;;8.38;3.00;;;11.20;99.90;;;;;;5005611;28;20120;-80
2023/03/31 10:22:01;;;;;;;6.17;2.80;;;11.20;99.90;;;;;;5004859;28;20046;-80
2023/03/31 10:24:42;;;;;;;5.40;3.07;;;11.30;99.90;;;;;;5011935;28;20041;-80
2023/03/31 10:27:18;;;;;;;7.63;3.03;;;11.40;99.90;;;;;;5009936;28;20363;-79
2023/03/31 10:29:44;;;;;;;4.53;2.87;;;11.50;99.90;;;;;;4987276;28;20046;-80
2023/03/31 10:32:41;;;;;;;5.90;2.90;;;11.60;99.90;;;;;;4989896;28;20037;-79
2023/03/31 10:35:31;;;;;;;5.22;2.67;;;11.70;99.90;;;;;;4996082;28;20053;-80
2023/03/31 10:38:01;;;;;;;7.93;2.80;;;11.80;99.90;;;;;;4991987;28;20095;-79
2023/03/31 10:40:31;;;;;;;5.18;2.78;;;11.90;99.90;;;;;;5015402;28;20049;-79
2023/03/31 10:43:18;;;;;;;5.80;2.13;;;11.90;99.90;;;;;;5005765;28;20057;-80
2023/03/31 10:45:48;;;;;;;5.30;2.85;;;12.00;99.90;;;;;;4999538;28;20496;-81
2023/03/31 10:48:37;;;;;;;8.35;2.80;;;12.10;99.90;;;;;;4999926;28;20053;-79
2023/03/31 10:51:12;;;;;;;5.75;2.70;;;12.10;99.90;;;;;;4999831;28;20042;-79
2023/03/31 10:53:52;;;;;;;5.15;2.97;;;12.30;99.90;;;;;;5011320;28;20406;-83
2023/03/31 10:56:36;;;;;;;5.13;2.75;;;12.30;99.90;;;;;;4980879;28;20112;-80
2023/03/31 10:59:41;;;;;;;6.55;2.85;;;12.40;99.90;;;;;;4980756;28;20129;-79
2023/03/31 11:02:16;;;;;;;4.68;3.00;;;12.50;99.90;;;;;;4988670;28;20041;-80
2023/03/31 11:05:26;;;;;;;4.88;2.83;;;12.70;99.90;;;;;;5003240;28;20115;-79
2023/03/31 11:08:11;;;;;;;6.35;2.78;;;12.70;99.90;;;;;;4993602;28;20095;-82
2023/03/31 11:10:57;;;;;;;5.93;2.97;;;12.70;99.90;;;;;;4991157;28;20142;-78
2023/03/31 11:14:00;;;;;;;6.72;2.67;;;12.70;99.90;;;;;;5013781;28;20085;-80
2023/03/31 11:16:35;;;;;;;7.15;2.75;;;12.60;99.90;;;;;;4986402;28;20500;-79
2023/03/31 11:19:13;;;;;;;6.78;2.92;;;12.50;99.90;;;;;;5007759;28;20041;-83
2023/03/31 11:22:03;;;;;;;3.08;2.20;;;12.40;99.90;;;;;;5012561;28;20068;-78
2023/03/31 11:24:50;;;;;;;4.40;2.45;;;12.30;99.90;;;;;;5002806;28;20054;-78
2023/03/31 11:27:16;;;;;;;3.90;2.00;;;12.20;99.90;;;;;;5006610;28;20088;-78
2023/03/31 11:30:06;;;;;;;5.45;2.80;;;12.20;99.90;;;;;;5000853;28;20041;-78
2023/03/31 11:32:47;;;;;;;4.18;2.10;;;12.30;99.90;;;;;;4982250;28;20129;-79
2023/03/31 11:35:20;;;;;;;4.55;2.58;;;12.40;99.90;;;;;;5000023;28;20045;-79
2023/03/31 11:38:00;;;;;;;22.52;5.28;;;12.50;99.90;;;;;;5000495;28;20050;-79
2023/03/31 11:40:50;;;;;;;4.63;2.40;;;12.70;99.90;;;;;;5006182;28;20084;-81
2023/03/31 11:43:50;;;;;;;6.60;2.70;;;12.70;99.90;;;;;;5002066;28;20064;-79
2023/03/31 11:46:32;;;;;;;5.57;2.55;;;12.70;99.90;;;;;;4999300;28;20041;-79
2023/03/31 11:49:13;;;;;;;10.57;3.40;;;12.80;99.90;;;;;;4998903;28;20049;-78
2023/03/31 11:51:50;;;;;;;7.05;2.72;;;13.00;99.90;;;;;;5000100;28;20069;-79
2023/03/31 11:54:26;;;;;;;5.60;2.80;;;13.10;99.90;;;;;;4998240;28;20051;-79
2023/03/31 11:56:53;;;;;;;7.00;2.97;;;13.00;99.90;;;;;;5000465;28;20087;-79
2023/03/31 11:59:22;;;;;;;6.07;3.00;;;12.90;99.90;;;;;;4983342;28;20056;-78
2023/03/31 12:02:31;;;;;;;7.32;3.03;;;12.90;99.90;;;;;;4997960;28;20124;-78
2023/03/31 12:04:58;;;;;;;7.00;3.20;;;12.90;99.90;;;;;;4985911;28;20136;-79
2023/03/31 12:07:49;;;;;;;7.82;3.35;;;13.00;99.90;;;;;;5001921;28;20076;-78
2023/03/31 12:10:19;;;;;;;6.50;3.30;;;13.00;99.90;;;;;;5000446;28;20059;-79
2023/03/31 12:13:24;;;;;;;7.80;3.38;;;13.10;99.90;;;;;;4999171;28;20038;-79
2023/03/31 12:16:09;;;;;;;9.07;3.58;;;13.20;99.90;;;;;;4978537;28;20041;-78
2023/03/31 12:19:01;;;;;;;6.10;2.90;;;13.20;99.90;;;;;;5018325;28;20056;-79
2023/03/31 12:21:29;;;;;;;10.18;3.60;;;13.20;99.90;;;;;;5001384;28;20848;-78
2023/03/31 12:23:55;;;;;;;11.10;4.25;;;13.30;99.90;;;;;;4982189;28;20045;-78
2023/03/31 12:26:42;;;;;;;7.28;3.75;;;13.30;99.90;;;;;;4980369;28;20056;-79
2023/03/31 12:29:33;;;;;;;11.50;3.75;;;13.30;99.90;;;;;;4984423;28;20045;-78
2023/03/31 12:32:08;;;;;;;8.50;3.63;;;13.30;99.90;;;;;;4975585;28;20128;-78
2023/03/31 12:34:43;;;;;;;7.57;3.55;;;13.20;99.90;;;;;;4982627;28;20048;-79
2023/03/31 12:37:24;;;;;;;10.95;3.50;;;13.20;99.90;;;;;;5000462;28;20069;-79
2023/03/31 12:40:04;;;;;;;8.93;3.90;;;13.20;99.90;;;;;;4999353;28;20077;-80
2023/03/31 12:43:02;;;;;;;9.20;3.70;;;13.10;99.90;;;;;;4999154;28;20049;-79
2023/03/31 12:45:29;;;;;;;8.07;3.40;;;13.10;99.90;;;;;;4978936;28;20503;-80
2023/03/31 12:48:33;;;;;;;10.65;3.65;;;13.10;99.90;;;;;;4981632;28;21123;-78
2023/03/31 12:51:20;;;;;;;8.98;3.50;;;13.20;99.90;;;;;;4927550;28;20066;-78
2023/03/31 12:54:11;;;;;;;8.60;4.20;;;13.40;99.90;;;;;;5000184;28;20084;-79
2023/03/31 12:57:03;;;;;;;8.48;3.70;;;13.50;99.90;;;;;;4998432;28;20053;-79
2023/03/31 12:59:34;;;;;;;8.52;4.10;;;13.70;99.90;;;;;;4986370;28;20041;-79
2023/03/31 13:02:08;;;;;;;10.80;3.90;;;13.70;99.90;;;;;;4999102;28;20372;-79
2023/03/31 13:04:36;;;;;;;8.00;3.47;;;13.70;99.90;;;;;;4976518;28;20569;-81
2023/03/31 13:07:03;;;;;;;13.93;3.42;;;13.70;99.90;;;;;;5003314;28;20037;-78
2023/03/31 13:09:32;;;;;;;8.73;3.38;;;13.50;99.90;;;;;;4981200;28;20050;-80
2023/03/31 13:12:05;;;;;;;9.90;3.60;;;13.50;99.90;;;;;;4986185;28;20099;-80